Capon Bridge, West Virginia
Current Conditions -  °F | °C
As of 1:55 AM on Friday 28 Nov 2014 (Local Time) from KOKV Reporting Station
Broken Clouds Broken Clouds  
Wind Chill: 26°   Ceiling: 4000
Heat Index: 34°   Visibility: 10mi
Dew Point: 19°   Wind: 9mph
Humidity: 56%   Direction: 290°WNW
Pressure: 30.2"   Gusts: NA
Location:  39.3°N, 78.44°W
Report Text: KOKV 280655Z AUTO 29008KT 10SM SCT034 BKN040 01/M07 A3020 RMK AO2
Loading
Personal Weather Stations






























Interactive Weather Map New forecast layout! Learn more

10-Day Weather Forecast

Advertisements
Track Severe Weather on mobile